Time;durP1;ratioP1;P1;durP2;ratioP2;P2;SDS_P1;SDS_P2;PMS_P1;PMS_P2;Temp;Humidity;BMP_temperature;BMP_pressure;BME280_temperature;BME280_humidity;BME280_pressure;Samples;Min_cycle;Max_cycle;Signal;HPM_P1;HPM_P2
2023/09/03 00:01:44;;;;;;;10.43;9.10;;;14.70;98.50;;;;;;4990881;28;20399;-80
2023/09/03 00:04:10;;;;;;;12.70;9.70;;;14.70;98.50;;;;;;5045474;28;20192;-76
2023/09/03 00:06:36;;;;;;;11.32;9.27;;;14.60;98.50;;;;;;5025773;28;20136;-80
2023/09/03 00:09:04;;;;;;;13.82;9.43;;;14.60;98.50;;;;;;5024885;28;20045;-82
2023/09/03 00:11:30;;;;;;;11.30;9.50;;;14.60;98.50;;;;;;5027460;28;20045;-82
2023/09/03 00:13:56;;;;;;;10.60;9.50;;;14.60;98.60;;;;;;5009959;28;20041;-81
2023/09/03 00:16:22;;;;;;;11.30;9.32;;;14.60;98.60;;;;;;5025313;28;20060;-81
2023/09/03 00:18:49;;;;;;;12.88;9.52;;;14.60;98.70;;;;;;5025409;28;20059;-83
2023/09/03 00:21:15;;;;;;;13.60;9.70;;;14.60;98.70;;;;;;5024318;28;20586;-81
2023/09/03 00:23:41;;;;;;;11.35;9.43;;;14.60;98.70;;;;;;5026556;28;20072;-82
2023/09/03 00:26:14;;;;;;;12.55;9.98;;;14.60;98.80;;;;;;5008811;28;20045;-80
2023/09/03 00:28:40;;;;;;;11.07;8.77;;;14.60;98.90;;;;;;5025076;28;20386;-81
2023/09/03 00:31:08;;;;;;;12.30;9.63;;;14.60;98.90;;;;;;4989747;28;20052;-82
2023/09/03 00:33:34;;;;;;;11.18;9.23;;;14.60;99.00;;;;;;5025867;28;20049;-82
2023/09/03 00:36:03;;;;;;;10.93;9.43;;;14.50;99.00;;;;;;5025492;28;20058;-81
2023/09/03 00:38:28;;;;;;;13.45;9.57;;;14.50;99.10;;;;;;5008055;28;20048;-82
2023/09/03 00:40:54;;;;;;;11.05;8.60;;;14.50;99.10;;;;;;5010051;28;20104;-81
2023/09/03 00:43:20;;;;;;;9.60;8.23;;;14.50;99.20;;;;;;5009330;28;20479;-80
2023/09/03 00:45:48;;;;;;;11.15;9.27;;;14.50;99.20;;;;;;5008222;28;20079;-80
2023/09/03 00:48:20;;;;;;;9.57;8.00;;;14.50;99.30;;;;;;5025704;28;20240;-80
2023/09/03 00:50:46;;;;;;;11.88;8.80;;;14.40;99.20;;;;;;5030380;28;20071;-80
2023/09/03 00:53:15;;;;;;;11.88;9.43;;;14.40;99.20;;;;;;5018373;28;20048;-80
2023/09/03 00:55:41;;;;;;;11.98;9.68;;;14.40;99.30;;;;;;5025499;28;20068;-82
2023/09/03 00:58:08;;;;;;;11.32;9.05;;;14.40;99.30;;;;;;5005722;28;20136;-81
2023/09/03 01:00:35;;;;;;;10.30;8.10;;;14.40;99.30;;;;;;5023233;28;20122;-81
2023/09/03 01:03:03;;;;;;;10.48;8.15;;;14.40;99.40;;;;;;5010079;28;20116;-80
2023/09/03 01:05:30;;;;;;;12.73;9.48;;;14.40;99.40;;;;;;5028644;28;20392;-80
2023/09/03 01:07:58;;;;;;;12.25;8.77;;;14.40;99.40;;;;;;5020929;28;20051;-80
2023/09/03 01:10:33;;;;;;;11.65;9.35;;;14.40;99.50;;;;;;5028022;28;20044;-80
2023/09/03 01:13:09;;;;;;;12.65;10.18;;;14.40;99.60;;;;;;5019989;28;20119;-80
2023/09/03 01:15:44;;;;;;;11.73;8.82;;;14.50;99.70;;;;;;5022771;28;20033;-80
2023/09/03 01:18:23;;;;;;;12.30;9.98;;;14.50;99.80;;;;;;5030575;28;20103;-78
2023/09/03 01:21:10;;;;;;;10.27;8.68;;;14.50;99.90;;;;;;5032648;28;20450;-79
2023/09/03 01:24:03;;;;;;;10.25;9.15;;;14.50;99.90;;;;;;5026915;28;20098;-83
2023/09/03 01:27:03;;;;;;;11.68;8.30;;;14.50;99.90;;;;;;5032386;28;20058;-82
2023/09/03 01:29:31;;;;;;;10.07;8.18;;;14.50;99.90;;;;;;5012180;28;20071;-80
2023/09/03 01:31:59;;;;;;;11.57;8.90;;;14.50;99.90;;;;;;5029139;28;20048;-79
2023/09/03 01:34:26;;;;;;;13.18;8.80;;;14.50;99.90;;;;;;5043641;28;20048;-79
2023/09/03 01:36:52;;;;;;;10.32;8.27;;;14.50;99.90;;;;;;5026582;28;20209;-79
2023/09/03 01:39:19;;;;;;;11.93;8.35;;;14.50;99.90;;;;;;5047157;28;20040;-78
2023/09/03 01:41:45;;;;;;;10.20;7.95;;;14.50;99.90;;;;;;5012451;28;20127;-79
2023/09/03 01:44:11;;;;;;;9.90;7.78;;;14.50;99.90;;;;;;5026189;28;20186;-77
2023/09/03 01:46:50;;;;;;;9.95;8.02;;;14.50;99.90;;;;;;5009396;28;20068;-78
2023/09/03 01:49:21;;;;;;;12.23;9.02;;;14.40;99.90;;;;;;5024603;28;20105;-79
2023/09/03 01:52:13;;;;;;;9.23;8.07;;;14.40;99.90;;;;;;5033232;28;20090;-81
2023/09/03 01:54:40;;;;;;;9.68;8.13;;;14.40;99.90;;;;;;5009305;28;20048;-79
2023/09/03 01:57:34;;;;;;;9.05;7.50;;;14.40;99.90;;;;;;5029912;28;20093;-78
2023/09/03 02:00:09;;;;;;;9.60;7.53;;;14.30;99.90;;;;;;5026857;28;20056;-79
2023/09/03 02:02:37;;;;;;;11.37;7.80;;;14.30;99.90;;;;;;5028054;28;21232;-79
2023/09/03 02:05:04;;;;;;;9.98;7.65;;;14.30;99.90;;;;;;5029187;28;20055;-80
2023/09/03 02:07:29;;;;;;;9.63;7.45;;;14.30;99.90;;;;;;5012591;28;20044;-79
2023/09/03 02:09:55;;;;;;;12.32;8.98;;;14.20;99.90;;;;;;5028201;28;20506;-78
2023/09/03 02:12:23;;;;;;;9.02;8.13;;;14.20;99.90;;;;;;5030873;28;20063;-78
2023/09/03 02:14:50;;;;;;;10.93;8.75;;;14.10;99.90;;;;;;5027612;28;20048;-78
2023/09/03 02:17:19;;;;;;;10.90;8.45;;;14.10;99.90;;;;;;5029183;28;20082;-79
2023/09/03 02:19:49;;;;;;;9.23;8.23;;;14.10;99.90;;;;;;5028603;28;20098;-78
2023/09/03 02:22:15;;;;;;;12.73;9.35;;;14.10;99.90;;;;;;5026402;28;21006;-78
2023/09/03 02:24:41;;;;;;;9.48;8.48;;;14.00;99.90;;;;;;5026793;28;20049;-80
2023/09/03 02:27:08;;;;;;;12.32;9.20;;;14.10;99.90;;;;;;5026217;28;20094;-81
2023/09/03 02:29:34;;;;;;;10.40;8.55;;;14.00;99.90;;;;;;5008104;28;20051;-77
2023/09/03 02:31:59;;;;;;;10.85;9.30;;;14.00;99.90;;;;;;5026385;28;20052;-78
2023/09/03 02:34:25;;;;;;;13.23;9.50;;;14.00;99.90;;;;;;5030387;28;20050;-79
2023/09/03 02:36:51;;;;;;;12.27;9.65;;;14.00;99.90;;;;;;5029595;28;20135;-84
2023/09/03 02:39:17;;;;;;;10.98;9.20;;;14.00;99.90;;;;;;5012214;28;20056;-80
2023/09/03 02:41:43;;;;;;;11.57;9.90;;;14.00;99.90;;;;;;5029806;28;20598;-83
2023/09/03 02:44:11;;;;;;;11.73;9.77;;;14.00;99.90;;;;;;5027996;28;20044;-79
2023/09/03 02:46:37;;;;;;;11.82;10.60;;;14.00;99.90;;;;;;5027943;28;20056;-83
2023/09/03 02:49:03;;;;;;;12.43;9.05;;;14.00;99.90;;;;;;5024828;28;20368;-84
2023/09/03 02:51:29;;;;;;;10.57;8.32;;;14.00;99.90;;;;;;5015033;28;20067;-85
2023/09/03 02:53:55;;;;;;;10.15;9.05;;;13.90;99.90;;;;;;5029048;28;20053;-79
2023/09/03 02:56:22;;;;;;;11.75;8.45;;;13.90;99.90;;;;;;4993715;28;20196;-78
2023/09/03 02:58:49;;;;;;;11.30;9.10;;;13.90;99.90;;;;;;5024159;28;20071;-80
2023/09/03 03:01:18;;;;;;;11.88;9.45;;;13.90;99.90;;;;;;5013878;28;20063;-80
2023/09/03 03:03:45;;;;;;;10.63;8.68;;;13.90;99.90;;;;;;5028780;28;20048;-79
2023/09/03 03:06:11;;;;;;;11.45;9.10;;;13.90;99.90;;;;;;5029910;28;20600;-78
2023/09/03 03:08:37;;;;;;;10.82;8.23;;;13.90;99.90;;;;;;5005290;28;20232;-80
2023/09/03 03:11:06;;;;;;;10.85;7.47;;;13.80;99.90;;;;;;5027076;28;20053;-79
2023/09/03 03:13:32;;;;;;;10.65;7.95;;;13.80;99.90;;;;;;5045010;28;20060;-80
2023/09/03 03:16:06;;;;;;;9.27;7.97;;;13.80;99.90;;;;;;5044052;28;20083;-79
2023/09/03 03:18:35;;;;;;;9.48;7.53;;;13.80;99.90;;;;;;5024307;28;20055;-79
2023/09/03 03:21:08;;;;;;;10.73;7.70;;;13.80;99.90;;;;;;5013807;28;20900;-77
2023/09/03 03:23:36;;;;;;;10.20;7.28;;;13.80;99.90;;;;;;5024214;28;20067;-79
2023/09/03 03:26:02;;;;;;;8.63;7.20;;;13.80;99.90;;;;;;5025789;28;20048;-75
2023/09/03 03:28:32;;;;;;;9.02;7.05;;;13.80;99.90;;;;;;5039452;28;20052;-75
2023/09/03 03:31:08;;;;;;;9.35;7.25;;;13.70;99.90;;;;;;5042104;28;20064;-77
2023/09/03 03:33:34;;;;;;;11.32;7.43;;;13.70;99.90;;;;;;5026002;28;20033;-77
2023/09/03 03:35:59;;;;;;;8.07;7.20;;;13.70;99.90;;;;;;5024066;28;20047;-81
2023/09/03 03:38:25;;;;;;;8.38;6.78;;;13.70;99.90;;;;;;5011165;28;20060;-81
2023/09/03 03:40:51;;;;;;;8.98;7.40;;;13.70;99.90;;;;;;5002952;28;20163;-80
2023/09/03 03:43:17;;;;;;;8.75;6.82;;;13.70;99.90;;;;;;5001680;28;20059;-78
2023/09/03 03:45:42;;;;;;;10.18;6.80;;;13.70;99.90;;;;;;5037931;28;20052;-78
2023/09/03 03:48:08;;;;;;;8.85;6.68;;;13.60;99.90;;;;;;5041620;28;21660;-80
2023/09/03 03:50:34;;;;;;;7.40;6.57;;;13.60;99.90;;;;;;5038762;28;20044;-80
2023/09/03 03:53:00;;;;;;;8.35;6.20;;;13.60;99.90;;;;;;5023896;28;20052;-81
2023/09/03 03:55:26;;;;;;;8.75;6.22;;;13.60;99.90;;;;;;5027843;28;20347;-83
2023/09/03 03:57:52;;;;;;;8.43;6.30;;;13.60;99.90;;;;;;5028466;28;21146;-79
2023/09/03 04:00:18;;;;;;;9.15;6.05;;;13.60;99.90;;;;;;5025116;28;20059;-76
2023/09/03 04:02:43;;;;;;;7.22;5.40;;;13.60;99.90;;;;;;5029093;28;20037;-83
2023/09/03 04:05:09;;;;;;;8.05;5.80;;;13.60;99.90;;;;;;5041814;28;20055;-85
2023/09/03 04:07:35;;;;;;;7.72;5.93;;;13.60;99.90;;;;;;5025016;28;20068;-81
2023/09/03 04:10:01;;;;;;;6.43;5.50;;;13.60;99.90;;;;;;5008506;28;20150;-80
2023/09/03 04:12:26;;;;;;;6.13;4.63;;;13.60;99.90;;;;;;5026356;28;20048;-80
2023/09/03 04:14:52;;;;;;;6.78;5.22;;;13.60;99.90;;;;;;5027662;28;20879;-80
2023/09/03 04:17:18;;;;;;;5.80;5.05;;;13.60;99.90;;;;;;5027516;28;20048;-80
2023/09/03 04:19:47;;;;;;;6.38;4.75;;;13.60;99.90;;;;;;5008561;28;20072;-80
2023/09/03 04:22:13;;;;;;;7.80;5.90;;;13.60;99.90;;;;;;5008264;28;20284;-80
2023/09/03 04:24:38;;;;;;;7.00;5.05;;;13.50;99.90;;;;;;5023365;28;20044;-80
2023/09/03 04:27:04;;;;;;;6.38;5.15;;;13.50;99.90;;;;;;5039486;28;20483;-81
2023/09/03 04:29:30;;;;;;;6.60;5.20;;;13.50;99.90;;;;;;5004646;28;20109;-81
2023/09/03 04:31:56;;;;;;;6.45;5.38;;;13.50;99.90;;;;;;4992379;28;20996;-80
2023/09/03 04:34:22;;;;;;;8.80;5.80;;;13.50;99.90;;;;;;5007141;28;20051;-81
2023/09/03 04:36:48;;;;;;;8.60;6.30;;;13.50;99.90;;;;;;5012001;28;20078;-80
2023/09/03 04:39:14;;;;;;;8.70;5.63;;;13.60;99.90;;;;;;5004677;28;20048;-81
2023/09/03 04:41:39;;;;;;;7.80;5.95;;;13.60;99.90;;;;;;5025842;28;20094;-81
2023/09/03 04:44:07;;;;;;;6.40;5.55;;;13.50;99.90;;;;;;4988792;28;20059;-82
2023/09/03 04:46:33;;;;;;;6.00;5.38;;;13.50;99.90;;;;;;5013769;28;20067;-81
2023/09/03 04:48:58;;;;;;;8.48;6.75;;;13.50;99.90;;;;;;5007151;28;20744;-82
2023/09/03 04:51:24;;;;;;;7.13;6.35;;;13.50;99.90;;;;;;5026137;28;20383;-81
2023/09/03 04:53:50;;;;;;;7.90;6.07;;;13.50;99.90;;;;;;5023000;28;20052;-80
2023/09/03 04:56:15;;;;;;;8.20;6.60;;;13.50;99.90;;;;;;5007016;28;20067;-80
2023/09/03 04:58:41;;;;;;;9.38;6.97;;;13.50;99.90;;;;;;5022304;28;20056;-78
2023/09/03 05:01:14;;;;;;;8.85;7.65;;;13.60;99.90;;;;;;5021995;28;20044;-80
2023/09/03 05:03:40;;;;;;;9.25;7.07;;;13.60;99.90;;;;;;5023415;28;20098;-80
2023/09/03 05:06:06;;;;;;;10.75;7.25;;;13.60;99.90;;;;;;5023295;28;20052;-80
2023/09/03 05:08:31;;;;;;;9.48;7.38;;;13.60;99.90;;;;;;5025354;28;20052;-82
2023/09/03 05:10:57;;;;;;;11.20;7.90;;;13.60;99.90;;;;;;5010780;28;20123;-81
2023/09/03 05:13:23;;;;;;;8.85;7.30;;;13.70;99.90;;;;;;5023140;28;20040;-80
2023/09/03 05:15:52;;;;;;;9.75;8.00;;;13.60;99.90;;;;;;4992838;28;20052;-78
2023/09/03 05:18:18;;;;;;;8.85;7.22;;;13.70;99.90;;;;;;5010187;28;20048;-80
2023/09/03 05:20:43;;;;;;;8.85;7.43;;;13.70;99.90;;;;;;5011819;28;20060;-81
2023/09/03 05:23:09;;;;;;;10.52;8.13;;;13.70;99.90;;;;;;5026001;28;20347;-78
2023/09/03 05:25:35;;;;;;;11.75;7.68;;;13.70;99.90;;;;;;5006662;28;20048;-78
2023/09/03 05:28:01;;;;;;;9.85;6.13;;;13.80;99.90;;;;;;5024026;28;20058;-79
2023/09/03 05:30:27;;;;;;;8.40;6.70;;;13.80;99.90;;;;;;5027327;28;20449;-77
2023/09/03 05:32:53;;;;;;;11.05;7.57;;;13.90;99.90;;;;;;5021924;28;20048;-78
2023/09/03 05:35:21;;;;;;;11.57;7.55;;;13.90;99.90;;;;;;5006576;28;20427;-80
2023/09/03 05:37:47;;;;;;;9.25;6.65;;;14.00;99.90;;;;;;5024534;28;20078;-78
2023/09/03 05:40:13;;;;;;;7.82;6.85;;;14.00;99.90;;;;;;5027740;28;20049;-76
2023/09/03 05:42:39;;;;;;;7.20;6.00;;;14.00;99.90;;;;;;4992108;28;20129;-76
2023/09/03 05:45:05;;;;;;;6.78;5.70;;;14.00;99.90;;;;;;4988283;28;20220;-76
2023/09/03 05:47:31;;;;;;;6.72;5.97;;;14.10;99.90;;;;;;5018292;28;20059;-76
2023/09/03 05:49:58;;;;;;;7.53;6.72;;;14.10;99.90;;;;;;5040457;28;20040;-77
2023/09/03 05:52:24;;;;;;;8.85;7.03;;;14.10;99.90;;;;;;5041963;28;20055;-77
2023/09/03 05:54:51;;;;;;;8.95;6.90;;;14.10;99.90;;;;;;5011081;28;20060;-76
2023/09/03 05:57:16;;;;;;;8.77;7.32;;;14.10;99.90;;;;;;5002528;28;20048;-77
2023/09/03 05:59:42;;;;;;;10.20;8.20;;;14.10;99.90;;;;;;5021910;28;20558;-76
2023/09/03 06:02:08;;;;;;;11.65;7.85;;;14.20;99.90;;;;;;5039110;28;20433;-77
2023/09/03 06:04:34;;;;;;;9.10;7.82;;;14.20;99.90;;;;;;5022687;28;20166;-76
2023/09/03 06:07:00;;;;;;;9.18;8.05;;;14.30;99.90;;;;;;5007941;28;20102;-77
2023/09/03 06:09:26;;;;;;;10.32;8.88;;;14.30;99.90;;;;;;5009349;28;22060;-76
2023/09/03 06:11:52;;;;;;;9.90;8.35;;;14.40;99.90;;;;;;5026183;28;20204;-76
2023/09/03 06:14:18;;;;;;;11.77;8.95;;;14.40;99.90;;;;;;5023050;28;20052;-76
2023/09/03 06:16:44;;;;;;;11.20;9.35;;;14.50;99.90;;;;;;5010660;28;20049;-76
2023/09/03 06:19:09;;;;;;;11.30;8.77;;;14.60;99.90;;;;;;4992730;28;20824;-77
2023/09/03 06:21:35;;;;;;;10.77;8.75;;;14.70;99.90;;;;;;5046757;28;20141;-76
2023/09/03 06:24:01;;;;;;;11.82;9.55;;;14.80;99.90;;;;;;5000406;28;20851;-77
2023/09/03 06:26:27;;;;;;;11.88;9.13;;;14.80;99.90;;;;;;5033717;28;20088;-77
2023/09/03 06:28:52;;;;;;;11.15;9.45;;;15.00;99.90;;;;;;5028640;28;20109;-78
2023/09/03 06:31:18;;;;;;;11.23;9.45;;;15.00;99.90;;;;;;5029895;28;20051;-77
2023/09/03 06:33:44;;;;;;;13.55;10.32;;;15.10;99.90;;;;;;5031920;28;20040;-82
2023/09/03 06:36:11;;;;;;;13.40;10.10;;;15.20;99.90;;;;;;5026479;28;20044;-78
2023/09/03 06:38:39;;;;;;;13.23;9.70;;;15.30;99.90;;;;;;5008037;28;20186;-77
2023/09/03 06:41:05;;;;;;;14.57;11.07;;;15.40;99.90;;;;;;5028027;28;20049;-79
2023/09/03 06:43:31;;;;;;;11.20;10.00;;;15.50;99.90;;;;;;5007755;28;20259;-77
2023/09/03 06:45:57;;;;;;;13.13;10.65;;;15.60;99.90;;;;;;5029775;28;20118;-77
2023/09/03 06:48:22;;;;;;;14.35;10.63;;;15.70;99.90;;;;;;5023847;28;20374;-77
2023/09/03 06:50:48;;;;;;;12.73;10.32;;;15.80;99.90;;;;;;5024525;28;20040;-77
2023/09/03 06:53:14;;;;;;;11.93;10.60;;;15.90;99.90;;;;;;5026700;28;20057;-77
2023/09/03 06:55:43;;;;;;;14.98;10.85;;;16.00;99.90;;;;;;5023988;28;20384;-77
2023/09/03 06:58:09;;;;;;;12.02;10.73;;;16.10;99.90;;;;;;5022689;28;20109;-77
2023/09/03 07:00:35;;;;;;;11.48;10.02;;;16.20;99.90;;;;;;5022376;28;20045;-77
2023/09/03 07:03:00;;;;;;;15.77;10.73;;;16.40;99.90;;;;;;5024099;28;20159;-78
2023/09/03 07:05:26;;;;;;;15.27;10.45;;;16.50;99.90;;;;;;5022965;28;20555;-78
2023/09/03 07:07:55;;;;;;;12.15;10.40;;;16.60;99.90;;;;;;5013531;28;20493;-77
2023/09/03 07:10:21;;;;;;;14.38;10.88;;;16.80;99.90;;;;;;5023803;28;20135;-78
2023/09/03 07:12:47;;;;;;;11.80;9.82;;;16.90;99.90;;;;;;5027097;28;20566;-77
2023/09/03 07:15:12;;;;;;;13.40;10.35;;;17.00;99.90;;;;;;5008247;28;20118;-77
2023/09/03 07:17:38;;;;;;;11.90;8.90;;;17.20;99.90;;;;;;5010107;28;20597;-78
2023/09/03 07:20:05;;;;;;;11.18;8.60;;;17.30;99.90;;;;;;5026068;28;20044;-77
2023/09/03 07:22:30;;;;;;;9.52;8.35;;;17.40;99.90;;;;;;5025442;28;20060;-77
2023/09/03 07:24:56;;;;;;;10.10;7.97;;;17.60;99.90;;;;;;5007092;28;20075;-81
2023/09/03 07:27:22;;;;;;;8.07;6.35;;;17.80;99.90;;;;;;5009998;28;20055;-79
2023/09/03 07:29:54;;;;;;;7.78;6.80;;;17.90;99.90;;;;;;5025851;28;20045;-78
2023/09/03 07:32:21;;;;;;;10.68;7.20;;;18.10;99.90;;;;;;5004512;28;20040;-78
2023/09/03 07:34:47;;;;;;;8.45;6.93;;;18.30;99.90;;;;;;5024785;28;20089;-78
2023/09/03 07:37:13;;;;;;;8.80;7.55;;;18.40;99.90;;;;;;5041202;28;20201;-78
2023/09/03 07:39:38;;;;;;;7.63;6.15;;;18.60;99.90;;;;;;5011208;28;20551;-78
2023/09/03 07:42:13;;;;;;;9.45;6.28;;;18.80;99.90;;;;;;5022733;28;20448;-77
2023/09/03 07:44:39;;;;;;;5.80;5.20;;;18.90;99.90;;;;;;5020963;28;20044;-77
2023/09/03 07:47:05;;;;;;;8.35;5.35;;;19.10;99.90;;;;;;5000542;28;20190;-78
2023/09/03 07:49:31;;;;;;;7.40;5.00;;;19.30;99.90;;;;;;5006118;28;20432;-76
2023/09/03 07:51:57;;;;;;;9.38;4.78;;;19.40;99.90;;;;;;5019685;28;20490;-77
2023/09/03 07:54:26;;;;;;;8.13;4.85;;;19.60;99.70;;;;;;5041553;28;20055;-77
2023/09/03 07:56:55;;;;;;;6.05;4.22;;;19.70;99.40;;;;;;5023055;28;20039;-77
2023/09/03 07:59:21;;;;;;;6.70;3.30;;;19.70;98.80;;;;;;5026024;28;20480;-77
2023/09/03 08:01:46;;;;;;;7.88;3.30;;;19.60;98.80;;;;;;5023330;28;20049;-77
2023/09/03 08:04:13;;;;;;;5.38;2.90;;;19.50;98.70;;;;;;5025546;28;20627;-77
2023/09/03 08:06:38;;;;;;;4.97;2.78;;;19.40;98.60;;;;;;5017399;28;20518;-77
2023/09/03 08:09:05;;;;;;;4.65;3.10;;;19.30;98.50;;;;;;5030414;28;20094;-77
2023/09/03 08:11:31;;;;;;;5.40;3.10;;;19.50;98.40;;;;;;5017632;28;20053;-77
2023/09/03 08:13:59;;;;;;;6.40;3.35;;;19.50;98.00;;;;;;5032838;28;20044;-77
2023/09/03 08:16:25;;;;;;;3.90;2.33;;;19.60;97.80;;;;;;5024944;28;20055;-76
2023/09/03 08:18:51;;;;;;;4.18;2.55;;;19.50;97.60;;;;;;5034657;28;20056;-77
2023/09/03 08:21:17;;;;;;;6.50;2.85;;;19.50;97.50;;;;;;5016268;28;20044;-77
2023/09/03 08:23:43;;;;;;;4.18;2.30;;;19.60;97.30;;;;;;5033843;28;20920;-77
2023/09/03 08:26:08;;;;;;;3.97;2.30;;;19.60;97.10;;;;;;5033930;28;20123;-77
2023/09/03 08:28:34;;;;;;;5.15;2.60;;;19.60;97.10;;;;;;5035593;28;20123;-77
2023/09/03 08:31:00;;;;;;;7.53;3.45;;;19.60;97.00;;;;;;5035456;28;20045;-77
2023/09/03 08:33:26;;;;;;;4.32;2.33;;;19.60;96.90;;;;;;5037034;28;20438;-77
2023/09/03 08:35:52;;;;;;;5.10;2.20;;;19.80;96.90;;;;;;5053601;28;20053;-77
2023/09/03 08:38:17;;;;;;;5.18;2.28;;;20.10;96.10;;;;;;5023341;28;20090;-77
2023/09/03 08:40:45;;;;;;;4.43;2.20;;;20.30;95.40;;;;;;5020481;28;20136;-77
2023/09/03 08:43:17;;;;;;;5.85;2.80;;;20.50;94.60;;;;;;5022579;28;20060;-77
2023/09/03 08:46:09;;;;;;;5.32;2.58;;;20.60;93.80;;;;;;5035233;28;20115;-76
2023/09/03 08:48:35;;;;;;;5.38;2.15;;;20.70;92.60;;;;;;5035152;28;20135;-77
2023/09/03 08:51:01;;;;;;;6.60;2.90;;;20.70;92.60;;;;;;5034580;28;20216;-78
2023/09/03 08:53:28;;;;;;;5.05;2.28;;;20.80;92.30;;;;;;5006041;28;20526;-78
2023/09/03 08:55:54;;;;;;;4.93;2.13;;;20.80;92.00;;;;;;5038687;28;20160;-78
2023/09/03 08:58:20;;;;;;;3.38;1.98;;;20.90;91.50;;;;;;5017400;28;20087;-77
2023/09/03 09:00:46;;;;;;;4.40;2.25;;;21.10;90.90;;;;;;5033064;28;20048;-77
2023/09/03 09:03:16;;;;;;;4.80;1.70;;;21.40;90.30;;;;;;5006624;28;20044;-77
2023/09/03 09:05:42;;;;;;;4.32;2.13;;;21.60;89.10;;;;;;5039674;28;20391;-77
2023/09/03 09:08:08;;;;;;;3.28;1.70;;;21.80;87.40;;;;;;5034722;28;20036;-77
2023/09/03 09:10:40;;;;;;;5.72;2.47;;;22.00;85.20;;;;;;5036841;28;20135;-77
2023/09/03 09:13:10;;;;;;;6.35;2.28;;;22.10;83.50;;;;;;5036248;28;20045;-77
2023/09/03 09:15:36;;;;;;;3.35;1.92;;;22.20;81.40;;;;;;5038679;28;20134;-77
2023/09/03 09:18:08;;;;;;;5.82;1.85;;;22.30;80.40;;;;;;5040444;28;20935;-78
2023/09/03 09:20:38;;;;;;;3.50;1.70;;;22.20;78.90;;;;;;5042601;28;20322;-77
2023/09/03 09:23:04;;;;;;;4.32;1.90;;;22.30;78.90;;;;;;5056629;28;20048;-77
2023/09/03 09:25:30;;;;;;;4.50;1.80;;;22.50;77.00;;;;;;5037050;28;20051;-77
2023/09/03 09:27:57;;;;;;;3.85;1.58;;;22.60;74.20;;;;;;5041962;28;20044;-77
2023/09/03 09:30:25;;;;;;;4.25;1.63;;;22.70;72.60;;;;;;5042795;28;21142;-77
2023/09/03 09:33:06;;;;;;;4.13;1.40;;;22.90;71.90;;;;;;5035944;28;20052;-78
2023/09/03 09:35:34;;;;;;;4.05;1.63;;;23.00;66.90;;;;;;5035021;28;20559;-77
2023/09/03 09:38:07;;;;;;;3.63;1.65;;;23.00;66.40;;;;;;5043179;28;20394;-77
2023/09/03 09:40:37;;;;;;;4.68;1.48;;;22.90;64.10;;;;;;5038488;28;20041;-77
2023/09/03 09:43:06;;;;;;;4.20;1.50;;;22.90;65.90;;;;;;5025898;28;20126;-76
2023/09/03 09:45:33;;;;;;;3.20;1.52;;;22.70;64.90;;;;;;5045250;28;20048;-77
2023/09/03 09:48:07;;;;;;;3.53;1.50;;;22.80;65.40;;;;;;5040385;28;20055;-77
2023/09/03 09:50:38;;;;;;;3.45;1.80;;;22.90;63.00;;;;;;5042702;28;20153;-77
2023/09/03 09:53:05;;;;;;;3.92;1.23;;;23.00;62.70;;;;;;5055786;28;20048;-77
2023/09/03 09:55:32;;;;;;;5.13;1.45;;;23.10;62.40;;;;;;5024026;28;20123;-77
2023/09/03 09:58:01;;;;;;;3.83;1.50;;;23.20;60.80;;;;;;5041334;28;20086;-77
2023/09/03 10:00:43;;;;;;;4.28;1.60;;;23.40;57.80;;;;;;5039364;28;20048;-76
2023/09/03 10:03:12;;;;;;;3.50;1.50;;;23.50;53.00;;;;;;5037534;28;20403;-76
2023/09/03 10:05:48;;;;;;;4.93;1.50;;;23.50;54.50;;;;;;5020254;28;20472;-76
2023/09/03 10:08:17;;;;;;;3.17;1.45;;;23.50;53.30;;;;;;5040621;28;20043;-76
2023/09/03 10:10:43;;;;;;;3.97;1.60;;;23.60;55.40;;;;;;5010730;28;20116;-76
2023/09/03 10:13:09;;;;;;;3.08;1.40;;;23.00;53.50;;;;;;5038172;28;20044;-77
2023/09/03 10:15:38;;;;;;;2.50;1.40;;;24.00;50.70;;;;;;5036427;28;20048;-77
2023/09/03 10:18:07;;;;;;;3.55;1.77;;;24.50;47.00;;;;;;5040519;28;20047;-75
2023/09/03 10:20:33;;;;;;;2.95;1.23;;;23.90;47.00;;;;;;5039146;28;20059;-77
2023/09/03 10:23:02;;;;;;;4.13;1.63;;;24.00;45.20;;;;;;5038268;28;20056;-76
2023/09/03 10:25:33;;;;;;;3.10;1.50;;;23.80;45.70;;;;;;5021233;28;20098;-77
2023/09/03 10:28:04;;;;;;;4.50;1.45;;;24.00;46.30;;;;;;5038583;28;20049;-77
2023/09/03 10:30:38;;;;;;;4.28;1.50;;;24.20;44.40;;;;;;5040882;28;20043;-77
2023/09/03 10:33:06;;;;;;;4.63;2.33;;;24.00;42.80;;;;;;5040509;28;20045;-77
2023/09/03 10:35:31;;;;;;;4.15;1.70;;;24.00;43.40;;;;;;5023525;28;20083;-77
2023/09/03 10:37:57;;;;;;;4.63;1.98;;;24.20;44.00;;;;;;5042129;28;20099;-77
2023/09/03 10:40:25;;;;;;;3.33;1.70;;;24.20;39.80;;;;;;5060322;28;20049;-77
2023/09/03 10:42:52;;;;;;;5.28;1.85;;;24.40;38.20;;;;;;5023747;28;20074;-77
2023/09/03 10:45:19;;;;;;;2.88;1.60;;;24.40;34.60;;;;;;5025468;28;20083;-77
2023/09/03 10:48:05;;;;;;;4.20;2.00;;;24.40;34.20;;;;;;5038079;28;20055;-77
2023/09/03 10:50:52;;;;;;;4.43;2.33;;;24.50;29.90;;;;;;5040633;28;20048;-77
2023/09/03 10:53:38;;;;;;;2.63;1.60;;;24.60;30.50;;;;;;5042618;28;20056;-78
2023/09/03 10:56:09;;;;;;;;;;;24.70;29.10;;;;;;5037081;28;20123;-78
2023/09/03 10:58:54;;;;;;;3.97;1.80;;;24.60;18.50;;;;;;5055609;28;20260;-76
2023/09/03 11:01:33;;;;;;;4.05;1.48;;;24.40;32.00;;;;;;5022832;28;20048;-77
2023/09/03 11:04:01;;;;;;;3.50;1.40;;;24.30;28.80;;;;;;5041701;28;20041;-77
2023/09/03 11:06:36;;;;;;;2.20;1.00;;;24.50;29.70;;;;;;5024152;28;20323;-77
2023/09/03 11:09:03;;;;;;;;;;;24.70;26.10;;;;;;5041348;28;20087;-77
2023/09/03 11:11:33;;;;;;;2.88;1.20;;;24.80;9.80;;;;;;5043285;28;19925;-77
2023/09/03 11:13:59;;;;;;;2.42;1.50;;;24.80;19.60;;;;;;5039764;28;20060;-77
2023/09/03 11:16:29;;;;;;;3.03;1.10;;;25.00;17.30;;;;;;5040093;28;20079;-77
2023/09/03 11:18:55;;;;;;;2.58;1.10;;;25.10;9.30;;;;;;5022942;28;20121;-77
2023/09/03 11:21:25;;;;;;;2.83;1.00;;;25.20;5.30;;;;;;5039412;28;21116;-76
2023/09/03 11:24:05;;;;;;;2.17;1.10;;;25.20;1.00;;;;;;5020759;28;20127;-77
2023/09/03 11:26:32;;;;;;;2.55;1.00;;;25.30;1.00;;;;;;5053405;28;20039;-77
2023/09/03 11:29:16;;;;;;;1.95;1.00;;;25.50;1.00;;;;;;5037735;28;20102;-77
2023/09/03 11:31:47;;;;;;;2.25;1.05;;;25.50;1.00;;;;;;5019543;28;20052;-77
2023/09/03 11:34:18;;;;;;;2.75;1.40;;;25.60;1.00;;;;;;5019020;28;20044;-77
2023/09/03 11:36:45;;;;;;;2.13;1.25;;;25.70;1.00;;;;;;5023433;28;20051;-77
2023/09/03 11:39:17;;;;;;;3.13;1.33;;;26.00;1.00;;;;;;5034805;28;20052;-78
2023/09/03 11:41:43;;;;;;;2.05;1.15;;;26.10;1.00;;;;;;5018522;28;20559;-77
2023/09/03 11:44:18;;;;;;;2.65;1.35;;;26.10;1.00;;;;;;5035211;28;20045;-77
2023/09/03 11:47:01;;;;;;;4.20;1.40;;;26.20;1.00;;;;;;5037393;28;20049;-77
2023/09/03 11:49:27;;;;;;;3.38;1.30;;;26.30;1.00;;;;;;5034551;28;20450;-77
2023/09/03 11:51:54;;;;;;;3.75;1.42;;;26.60;1.00;;;;;;5035568;28;20719;-76
2023/09/03 11:54:26;;;;;;;2.42;1.35;;;26.90;1.00;;;;;;5038891;28;20055;-76
2023/09/03 11:57:01;;;;;;;2.38;1.23;;;27.20;1.00;;;;;;5036415;28;20148;-77
2023/09/03 11:59:27;;;;;;;2.08;1.10;;;27.30;1.00;;;;;;5037912;28;20056;-76
2023/09/03 12:01:54;;;;;;;2.00;1.20;;;27.20;1.00;;;;;;5022032;28;20475;-77
2023/09/03 12:04:20;;;;;;;2.65;1.20;;;27.30;1.00;;;;;;5038922;28;20072;-77
2023/09/03 12:06:46;;;;;;;3.45;1.20;;;27.30;1.00;;;;;;5019630;28;20048;-76
2023/09/03 12:09:13;;;;;;;3.35;1.30;;;27.50;1.00;;;;;;5023431;28;20086;-76
2023/09/03 12:11:39;;;;;;;3.47;1.27;;;27.40;1.00;;;;;;5039486;28;20128;-76
2023/09/03 12:14:10;;;;;;;2.63;1.60;;;27.20;1.00;;;;;;5035618;28;20053;-77
2023/09/03 12:16:48;;;;;;;2.95;1.40;;;27.10;1.00;;;;;;5031983;28;20033;-76
2023/09/03 12:19:14;;;;;;;2.83;1.40;;;27.10;1.00;;;;;;5028316;28;20032;-76
2023/09/03 12:21:40;;;;;;;4.00;1.23;;;27.20;1.00;;;;;;5025288;28;20049;-75
2023/09/03 12:24:07;;;;;;;3.05;1.58;;;27.40;1.00;;;;;;4975388;28;20403;-76
2023/09/03 12:26:37;;;;;;;2.22;1.40;;;27.60;1.00;;;;;;5013041;28;20131;-76
2023/09/03 12:29:04;;;;;;;3.60;1.20;;;28.00;1.00;;;;;;5013212;28;20059;-76
2023/09/03 12:31:41;;;;;;;3.55;1.52;;;28.10;1.00;;;;;;5027347;28;20096;-76
2023/09/03 12:34:08;;;;;;;3.00;1.40;;;27.80;1.00;;;;;;5036573;28;20049;-76
2023/09/03 12:36:51;;;;;;;2.67;1.30;;;27.60;1.00;;;;;;5016240;28;20605;-76
2023/09/03 12:39:31;;;;;;;2.88;1.30;;;27.30;1.00;;;;;;5033425;28;20044;-76
2023/09/03 12:41:58;;;;;;;2.25;1.38;;;27.00;1.00;;;;;;5047595;28;20093;-77
2023/09/03 12:44:26;;;;;;;3.10;1.23;;;27.10;1.00;;;;;;5029573;28;20074;-76
2023/09/03 12:46:52;;;;;;;4.47;1.50;;;27.10;1.00;;;;;;5012902;28;20051;-77
2023/09/03 12:49:17;;;;;;;2.60;1.30;;;26.80;1.00;;;;;;5032882;28;20049;-75
2023/09/03 12:51:43;;;;;;;3.30;1.30;;;26.60;1.00;;;;;;5030742;28;20044;-74